Weather at Calgary / Springbank Airport

Public forecast

Using degrees Celsius for public forecast. Weather courtesy of forecast.io.

Current aviation weather report (METAR) for Calgary / Springbank Airport

Retrieved 2022/01/21 12:00 UTC (19 minutes ago):

CYBW 211200Z AUTO 32005KT 9SM BKN076 M02/M05 A3005 RMK SLP221

Aviation forecast (TAF) for Calgary / Springbank Airport

Forecast is more than 12 hours old.

Retrieved 2022-01-21 00:00 UTC (12 hours ago):

TAF CYBW 202340Z 2100/2105 29025G35KT P6SM SCT240 BECMG 2100/2102 30020G30KT RMK FCST BASED ON AUTO OBS NXT FCST BY 211300Z